Time;durP1;ratioP1;P1;durP2;ratioP2;P2;SDS_P1;SDS_P2;PMS_P1;PMS_P2;Temp;Humidity;BMP_temperature;BMP_pressure;BME280_temperature;BME280_humidity;BME280_pressure;Samples;Min_cycle;Max_cycle;Signal;HPM_P1;HPM_P2
2023/02/25 14:37:21;;;;;;;2.73;2.00;;;5.20;35.10;;;;;;5155301;27;21149;-85
2023/02/25 14:40:04;;;;;;;5.30;3.30;;;5.10;33.80;;;;;;5126171;28;20195;-83
2023/02/25 14:42:45;;;;;;;2.73;2.00;;;5.10;33.80;;;;;;5117907;27;20196;-85
2023/02/25 14:45:20;;;;;;;3.50;1.50;;;5.10;33.40;;;;;;5121333;28;20570;-89
2023/02/25 14:47:55;;;;;;;5.60;1.70;;;5.10;34.00;;;;;;5123168;28;20204;-87
2023/02/25 14:50:27;;;;;;;4.17;1.50;;;5.10;35.00;;;;;;5119375;28;20203;-86
2023/02/25 14:53:19;;;;;;;3.77;1.70;;;5.00;34.50;;;;;;5117412;28;20199;-85
2023/02/25 14:56:03;;;;;;;8.27;4.23;;;5.00;34.90;;;;;;5124004;27;20215;-88
2023/02/25 14:58:52;;;;;;;4.37;2.83;;;5.00;36.10;;;;;;5142443;27;20260;-88
2023/02/25 15:01:53;;;;;;;4.73;3.10;;;5.20;36.80;;;;;;5126264;27;20198;-89
2023/02/25 15:04:56;;;;;;;4.10;1.83;;;5.20;36.90;;;;;;5123271;27;20204;-91
2023/02/25 15:07:47;;;;;;;2.97;1.70;;;5.10;35.40;;;;;;5118956;28;20195;-87
2023/02/25 15:10:39;;;;;;;3.27;1.50;;;5.10;37.00;;;;;;5120744;28;20204;-85
2023/02/25 15:13:35;;;;;;;3.97;1.53;;;5.00;38.20;;;;;;5121413;28;20701;-85
2023/02/25 15:16:32;;;;;;;5.70;1.70;;;4.80;38.30;;;;;;5124748;27;20575;-87
2023/02/25 15:19:36;;;;;;;2.77;1.40;;;4.70;41.10;;;;;;5121779;28;20202;-91
2023/02/25 15:24:40;;;;;;;5.93;2.60;;;4.80;44.20;;;;;;5660441;22;20274;-86
2023/02/25 15:27:47;;;;;;;5.10;2.20;;;4.80;47.00;;;;;;5070697;28;20276;-88
2023/02/25 15:30:17;;;;;;;3.27;1.80;;;4.80;44.10;;;;;;5057270;28;20661;-88
2023/02/25 15:32:56;;;;;;;2.67;1.50;;;4.80;44.20;;;;;;5064281;28;20595;-88
2023/02/25 15:35:44;;;;;;;2.40;1.70;;;4.70;45.60;;;;;;5039184;28;20213;-88
2023/02/25 15:38:18;;;;;;;4.57;1.60;;;4.80;45.50;;;;;;5060614;28;20684;-87
2023/02/25 15:40:49;;;;;;;1.80;1.40;;;4.80;44.10;;;;;;5064296;28;20201;-87
2023/02/25 15:43:41;;;;;;;2.77;1.70;;;4.80;44.10;;;;;;5064010;28;20193;-84
2023/02/25 15:46:41;;;;;;;2.40;1.47;;;4.90;44.20;;;;;;5059455;28;20657;-87
2023/02/25 15:49:22;;;;;;;1.53;1.30;;;4.80;40.80;;;;;;5031405;28;20281;-85
2023/02/25 15:51:52;;;;;;;2.97;1.40;;;4.70;41.50;;;;;;5047315;28;20197;-87
2023/02/25 15:54:48;;;;;;;5.00;1.33;;;4.60;42.40;;;;;;5048619;28;20209;-85
2023/02/25 15:57:37;;;;;;;4.53;1.40;;;4.60;43.40;;;;;;5054003;28;20302;-89
2023/02/25 16:00:50;;;;;;;2.13;1.50;;;4.60;43.90;;;;;;5054047;28;20289;-87
2023/02/25 16:03:41;;;;;;;1.67;1.20;;;4.50;43.90;;;;;;5047736;28;20632;-89
2023/02/25 16:06:18;;;;;;;1.33;1.23;;;4.70;44.00;;;;;;5049396;28;20202;-87
2023/02/25 16:08:56;;;;;;;5.40;2.00;;;4.60;43.90;;;;;;5029477;28;20807;-90
2023/02/25 16:11:35;;;;;;;3.00;1.20;;;4.80;52.80;;;;;;5052923;28;20210;-87
2023/02/25 16:14:07;;;;;;;1.20;1.03;;;5.00;44.30;;;;;;5046154;28;20201;-87
2023/02/25 16:16:36;;;;;;;1.30;1.20;;;4.80;38.80;;;;;;5052562;28;20225;-86
2023/02/25 16:19:07;;;;;;;2.27;1.10;;;4.70;41.70;;;;;;5032255;28;20259;-87
2023/02/25 16:21:41;;;;;;;2.77;1.23;;;4.70;40.90;;;;;;5050645;28;20234;-88
2023/02/25 16:24:10;;;;;;;2.40;1.30;;;4.50;41.60;;;;;;5045091;28;20205;-88
2023/02/25 16:26:44;;;;;;;1.33;1.23;;;4.40;43.80;;;;;;5050689;28;20595;-91
2023/02/25 16:29:22;;;;;;;2.27;1.27;;;4.30;43.80;;;;;;5010823;28;20283;-88
2023/02/25 16:31:55;;;;;;;2.33;1.53;;;4.40;43.80;;;;;;5048422;28;20193;-86
2023/02/25 16:34:29;;;;;;;2.00;1.50;;;4.40;45.00;;;;;;5049613;28;20228;-87
2023/02/25 16:37:07;;;;;;;2.23;1.10;;;4.30;43.70;;;;;;5045555;28;20230;-87
2023/02/25 16:39:36;;;;;;;2.37;1.50;;;4.30;46.80;;;;;;5049271;28;20256;-88
2023/02/25 16:42:05;;;;;;;3.07;1.60;;;4.30;46.10;;;;;;5026710;28;20199;-88
2023/02/25 16:44:37;;;;;;;4.27;1.33;;;4.30;48.90;;;;;;5031245;28;20210;-88
2023/02/25 16:47:12;;;;;;;1.40;1.30;;;4.30;48.80;;;;;;5053967;28;20241;-88
2023/02/25 16:49:46;;;;;;;2.63;1.50;;;4.30;49.20;;;;;;5017591;28;20197;-88
2023/02/25 16:52:18;;;;;;;16.57;11.27;;;4.30;49.60;;;;;;5050736;28;20202;-88
2023/02/25 16:54:46;;;;;;;1.90;1.40;;;4.30;51.30;;;;;;5047074;28;20569;-87
2023/02/25 16:57:21;;;;;;;1.80;1.60;;;4.30;51.30;;;;;;5030233;28;20705;-88
2023/02/25 16:59:49;;;;;;;1.93;1.30;;;4.30;50.30;;;;;;5036002;28;20202;-87
2023/02/25 17:02:24;;;;;;;1.33;1.20;;;4.30;52.10;;;;;;5045912;28;20284;-89
2023/02/25 17:04:54;;;;;;;3.17;1.60;;;4.30;53.60;;;;;;5030221;28;20205;-87
2023/02/25 17:07:26;;;;;;;1.93;1.50;;;4.30;52.30;;;;;;5047674;28;20203;-88
2023/02/25 17:09:58;;;;;;;2.47;1.50;;;4.30;53.10;;;;;;5026816;28;20677;-88
2023/02/25 17:12:30;;;;;;;2.83;1.60;;;4.20;51.80;;;;;;5053501;28;20201;-89
2023/02/25 17:14:59;;;;;;;3.43;1.50;;;4.20;54.70;;;;;;5049754;28;20202;-88
2023/02/25 17:17:31;;;;;;;1.97;1.40;;;4.10;55.30;;;;;;5027034;28;20214;-88
2023/02/25 17:20:04;;;;;;;4.30;1.70;;;4.10;56.40;;;;;;5051307;28;20237;-87
2023/02/25 17:22:32;;;;;;;2.17;1.70;;;4.10;56.10;;;;;;5046610;28;20221;-87
2023/02/25 17:25:00;;;;;;;5.47;1.90;;;4.00;58.20;;;;;;5051078;28;20573;-84
2023/02/25 17:27:28;;;;;;;3.83;1.87;;;3.90;59.10;;;;;;5048879;28;20701;-84
2023/02/25 17:29:55;;;;;;;2.73;1.63;;;3.80;60.40;;;;;;5026714;28;20203;-84
2023/02/25 17:32:25;;;;;;;5.77;1.90;;;3.80;61.10;;;;;;5049219;28;20214;-85
2023/02/25 17:34:54;;;;;;;2.90;2.20;;;3.90;64.10;;;;;;5049571;28;20583;-88
2023/02/25 17:37:25;;;;;;;2.73;1.90;;;3.80;63.60;;;;;;5054128;28;20222;-86
2023/02/25 17:39:53;;;;;;;2.33;1.60;;;3.90;63.60;;;;;;5052393;28;20255;-84
2023/02/25 17:42:31;;;;;;;2.60;1.70;;;3.80;64.40;;;;;;5055203;28;20206;-84
2023/02/25 17:44:59;;;;;;;2.00;1.60;;;3.80;68.50;;;;;;5049537;28;20224;-85
2023/02/25 17:47:29;;;;;;;2.47;1.70;;;3.90;68.60;;;;;;5052671;28;20240;-86
2023/02/25 17:49:57;;;;;;;2.23;1.93;;;3.90;68.60;;;;;;5035549;28;20206;-85
2023/02/25 17:52:28;;;;;;;4.00;2.27;;;3.90;68.70;;;;;;5036213;28;20264;-85
2023/02/25 17:54:59;;;;;;;3.30;1.70;;;4.00;68.70;;;;;;5055175;28;20243;-85
2023/02/25 17:57:28;;;;;;;3.27;1.60;;;4.00;68.70;;;;;;5030429;28;20268;-85
2023/02/25 18:00:03;;;;;;;6.63;3.27;;;4.00;71.50;;;;;;5027587;28;20205;-86
2023/02/25 18:02:34;;;;;;;3.17;1.37;;;3.90;81.90;;;;;;5054952;28;20235;-84
2023/02/25 18:05:23;;;;;;;2.07;1.60;;;3.60;91.10;;;;;;5050361;28;20216;-83
2023/02/25 18:08:09;;;;;;;2.80;1.10;;;3.20;94.00;;;;;;5050988;28;20201;-84
2023/02/25 18:10:47;;;;;;;1.23;1.10;;;2.90;95.20;;;;;;5044230;28;20201;-84
2023/02/25 18:13:21;;;;;;;1.93;1.13;;;2.60;96.70;;;;;;5053397;28;20201;-85
2023/02/25 18:16:08;;;;;;;2.07;1.30;;;2.20;98.00;;;;;;5047216;28;20186;-86
2023/02/25 18:18:35;;;;;;;1.27;1.17;;;2.10;98.50;;;;;;5057395;28;20566;-84
2023/02/25 18:21:02;;;;;;;1.13;1.00;;;2.00;99.30;;;;;;5052716;28;20201;-86
2023/02/25 18:23:31;;;;;;;1.07;0.97;;;2.00;99.60;;;;;;5049797;28;20228;-84
2023/02/25 18:26:14;;;;;;;0.93;0.90;;;1.90;99.30;;;;;;5053924;28;20194;-85
2023/02/25 18:28:41;;;;;;;1.20;1.10;;;1.80;99.60;;;;;;5027659;28;20251;-87
2023/02/25 18:31:08;;;;;;;1.37;1.20;;;1.70;99.50;;;;;;5055021;28;20208;-83
2023/02/25 18:33:36;;;;;;;6.83;1.10;;;1.60;99.50;;;;;;5031811;28;20197;-87
2023/02/25 18:36:05;;;;;;;1.23;1.13;;;1.60;99.90;;;;;;5046555;28;20221;-85
2023/02/25 18:38:36;;;;;;;1.67;1.50;;;1.70;99.90;;;;;;5050293;28;20209;-88
2023/02/25 18:41:05;;;;;;;2.63;1.70;;;1.60;99.70;;;;;;5025637;28;20656;-86
2023/02/25 18:43:35;;;;;;;4.03;1.37;;;1.50;99.90;;;;;;5022943;28;20212;-86
2023/02/25 18:46:03;;;;;;;2.47;1.50;;;1.40;99.90;;;;;;5048022;28;20675;-87
2023/02/25 18:48:31;;;;;;;5.47;2.80;;;1.50;99.90;;;;;;5051043;28;20207;-86
2023/02/25 18:50:58;;;;;;;1.53;1.33;;;1.50;99.90;;;;;;5035028;28;20256;-86
2023/02/25 18:53:26;;;;;;;3.67;1.60;;;1.50;99.90;;;;;;5041822;28;20255;-87
2023/02/25 18:55:57;;;;;;;2.47;1.70;;;1.40;99.50;;;;;;5048434;28;20221;-87
2023/02/25 18:58:25;;;;;;;1.83;1.20;;;1.40;99.50;;;;;;5026885;28;20205;-86
2023/02/25 19:00:54;;;;;;;1.90;1.50;;;1.30;99.50;;;;;;5048516;28;20212;-87
2023/02/25 19:03:27;;;;;;;3.80;1.67;;;1.30;99.50;;;;;;5044952;28;20195;-87
2023/02/25 19:05:54;;;;;;;1.70;1.60;;;1.30;99.90;;;;;;5045015;28;20202;-86
2023/02/25 19:08:21;;;;;;;2.17;1.50;;;1.30;99.60;;;;;;5027656;28;20205;-88
2023/02/25 19:10:48;;;;;;;1.70;1.60;;;1.20;99.90;;;;;;4996829;28;20207;-87
2023/02/25 19:13:19;;;;;;;1.87;1.40;;;1.30;99.90;;;;;;5049913;28;20206;-86
2023/02/25 19:15:46;;;;;;;4.77;1.80;;;1.30;99.90;;;;;;5045430;28;20203;-87
2023/02/25 19:18:15;;;;;;;4.10;1.60;;;1.20;99.90;;;;;;5043377;28;20226;-89
2023/02/25 19:20:42;;;;;;;2.07;1.60;;;1.20;99.90;;;;;;5029100;28;20297;-87
2023/02/25 19:23:11;;;;;;;2.83;1.80;;;1.20;99.90;;;;;;5044029;28;20219;-86
2023/02/25 19:25:40;;;;;;;3.87;2.23;;;1.20;99.90;;;;;;5044728;28;20588;-87
2023/02/25 19:28:07;;;;;;;1.97;1.50;;;1.20;99.90;;;;;;5033767;28;20619;-87
2023/02/25 19:30:40;;;;;;;2.60;1.90;;;1.40;99.90;;;;;;5054676;28;20202;-87
2023/02/25 19:33:09;;;;;;;3.77;1.90;;;1.50;99.50;;;;;;5038429;28;20194;-90
2023/02/25 19:35:38;;;;;;;2.23;1.90;;;1.50;99.50;;;;;;5054144;28;20612;-88
2023/02/25 19:38:07;;;;;;;2.30;1.90;;;1.60;99.90;;;;;;5049133;28;20225;-87
2023/02/25 19:40:35;;;;;;;4.23;2.10;;;1.60;99.80;;;;;;5053794;28;20198;-88
2023/02/25 19:43:03;;;;;;;5.27;2.50;;;1.70;99.90;;;;;;5052815;28;20209;-88
2023/02/25 19:45:31;;;;;;;3.30;2.40;;;1.70;99.60;;;;;;5029941;28;20202;-87
2023/02/25 19:47:59;;;;;;;2.60;2.23;;;1.70;99.80;;;;;;5054018;28;20209;-86
2023/02/25 19:50:27;;;;;;;3.37;2.40;;;1.60;99.90;;;;;;5055537;28;20216;-87
2023/02/25 19:52:54;;;;;;;2.23;1.83;;;1.60;99.90;;;;;;5057282;28;20277;-86
2023/02/25 19:55:22;;;;;;;2.23;2.03;;;1.50;99.70;;;;;;5051827;28;20209;-86
2023/02/25 19:57:49;;;;;;;2.23;1.67;;;1.50;99.50;;;;;;5029878;28;20593;-86
2023/02/25 20:00:18;;;;;;;3.40;2.20;;;1.50;99.50;;;;;;5062352;28;20207;-86
2023/02/25 20:02:46;;;;;;;4.63;2.50;;;1.30;99.50;;;;;;5048464;28;20209;-87
2023/02/25 20:05:14;;;;;;;2.27;1.87;;;1.40;99.50;;;;;;5030503;28;20207;-86
2023/02/25 20:07:42;;;;;;;3.10;1.90;;;1.50;99.70;;;;;;5046818;28;20205;-86
2023/02/25 20:10:11;;;;;;;2.23;1.73;;;1.40;99.50;;;;;;5031945;28;20205;-87
2023/02/25 20:12:38;;;;;;;2.87;2.10;;;1.40;99.50;;;;;;5051519;28;20259;-87
2023/02/25 20:15:06;;;;;;;2.73;1.80;;;1.50;99.50;;;;;;5046626;28;20220;-87
2023/02/25 20:17:35;;;;;;;2.90;2.20;;;1.40;99.70;;;;;;5047062;28;20218;-86
2023/02/25 20:20:02;;;;;;;3.40;2.20;;;1.40;99.90;;;;;;5047453;28;20194;-86
2023/02/25 20:22:31;;;;;;;2.90;2.33;;;1.50;99.90;;;;;;5049260;28;20276;-86
2023/02/25 20:24:59;;;;;;;3.50;2.50;;;1.50;99.90;;;;;;5011721;28;20560;-86
2023/02/25 20:27:26;;;;;;;5.23;2.87;;;1.40;99.90;;;;;;5050141;28;20194;-87
2023/02/25 20:29:54;;;;;;;5.47;2.90;;;1.40;99.90;;;;;;5056253;28;20202;-87
2023/02/25 20:32:21;;;;;;;5.87;3.77;;;1.50;99.90;;;;;;5048052;28;20198;-88
2023/02/25 20:34:48;;;;;;;2.97;2.60;;;1.50;99.90;;;;;;5050730;28;20193;-86
2023/02/25 20:37:21;;;;;;;4.53;3.27;;;1.50;99.90;;;;;;5046306;28;20210;-87
2023/02/25 20:39:52;;;;;;;7.07;4.50;;;1.50;99.90;;;;;;5052585;28;20208;-88
2023/02/25 20:42:21;;;;;;;4.03;3.10;;;1.60;99.90;;;;;;5045691;28;20202;-87
2023/02/25 20:44:48;;;;;;;6.27;3.03;;;1.60;99.90;;;;;;5047871;28;20673;-87
2023/02/25 20:47:19;;;;;;;3.60;2.90;;;1.70;99.90;;;;;;5027218;28;20198;-87
2023/02/25 20:49:47;;;;;;;3.70;3.03;;;1.70;99.90;;;;;;5052542;28;20202;-87
2023/02/25 20:52:15;;;;;;;3.40;2.87;;;1.60;99.90;;;;;;5046902;28;20206;-86
2023/02/25 20:54:42;;;;;;;4.40;3.40;;;1.50;99.90;;;;;;5019203;28;20194;-86
2023/02/25 20:57:14;;;;;;;3.93;3.07;;;1.40;99.90;;;;;;5053294;28;20218;-87
2023/02/25 20:59:41;;;;;;;3.57;3.03;;;1.30;99.90;;;;;;5048362;28;20198;-87
2023/02/25 21:02:08;;;;;;;2.40;2.07;;;1.30;99.90;;;;;;5046551;28;20560;-87
2023/02/25 21:04:35;;;;;;;2.77;1.90;;;1.30;99.90;;;;;;5046338;28;20621;-87
2023/02/25 21:07:02;;;;;;;3.23;2.23;;;1.20;99.90;;;;;;5046099;28;20285;-87
2023/02/25 21:09:29;;;;;;;3.57;1.97;;;1.10;99.70;;;;;;5046089;28;20285;-88
2023/02/25 21:11:56;;;;;;;2.97;1.90;;;1.00;99.40;;;;;;5047547;28;20212;-87
2023/02/25 21:14:25;;;;;;;1.57;1.47;;;0.90;99.40;;;;;;5046926;28;20210;-87
2023/02/25 21:16:53;;;;;;;2.60;2.13;;;0.90;99.80;;;;;;5022109;28;20228;-88
2023/02/25 21:19:23;;;;;;;1.70;1.60;;;0.90;99.70;;;;;;5036056;28;20186;-88
2023/02/25 21:21:50;;;;;;;2.80;1.90;;;0.80;99.40;;;;;;5047905;28;20217;-88
2023/02/25 21:24:19;;;;;;;3.00;2.20;;;0.80;99.90;;;;;;5047076;28;20205;-87
2023/02/25 21:26:46;;;;;;;2.50;1.97;;;0.80;99.90;;;;;;5048912;28;20199;-89
2023/02/25 21:29:14;;;;;;;2.73;1.90;;;0.80;99.70;;;;;;5024436;28;20190;-88
2023/02/25 21:31:44;;;;;;;2.13;1.70;;;0.80;99.80;;;;;;5031105;28;20202;-88
2023/02/25 21:34:13;;;;;;;3.20;2.03;;;0.80;99.40;;;;;;5051017;28;20198;-87
2023/02/25 21:36:41;;;;;;;1.77;1.57;;;0.80;99.90;;;;;;5054876;28;20228;-88
2023/02/25 21:39:10;;;;;;;2.23;1.50;;;0.70;99.30;;;;;;5055350;28;20193;-87
2023/02/25 21:41:40;;;;;;;2.70;1.97;;;0.70;99.30;;;;;;5056536;28;20202;-87
2023/02/25 21:44:07;;;;;;;1.90;1.80;;;0.70;99.80;;;;;;5057555;28;20576;-87
2023/02/25 21:46:34;;;;;;;1.90;1.60;;;0.60;99.80;;;;;;5052320;28;20266;-87
2023/02/25 21:49:03;;;;;;;1.63;1.50;;;0.60;99.90;;;;;;5031615;28;20252;-87
2023/02/25 21:51:30;;;;;;;5.17;2.00;;;0.60;99.90;;;;;;5024231;28;20202;-88
2023/02/25 21:53:58;;;;;;;2.27;2.07;;;0.60;99.90;;;;;;5031944;28;20206;-88
2023/02/25 21:56:27;;;;;;;2.03;1.90;;;0.70;99.90;;;;;;5052016;28;20681;-87
2023/02/25 21:58:55;;;;;;;2.40;2.10;;;0.70;99.90;;;;;;5033155;28;20226;-88
2023/02/25 22:01:25;;;;;;;2.70;2.20;;;0.80;99.90;;;;;;5048209;28;20198;-88
2023/02/25 22:03:51;;;;;;;4.20;2.40;;;0.70;99.90;;;;;;5050736;28;20209;-88
2023/02/25 22:06:22;;;;;;;4.73;2.33;;;0.80;99.90;;;;;;5058383;28;20198;-88
2023/02/25 22:08:49;;;;;;;3.77;2.60;;;0.80;99.90;;;;;;5054952;28;20201;-87
2023/02/25 22:11:19;;;;;;;3.63;3.10;;;0.80;99.90;;;;;;5033057;28;20572;-87
2023/02/25 22:13:46;;;;;;;6.40;3.07;;;1.00;99.90;;;;;;5054444;28;20198;-88
2023/02/25 22:16:14;;;;;;;4.53;2.90;;;1.00;99.90;;;;;;5054925;28;20696;-89
2023/02/25 22:18:42;;;;;;;4.03;2.93;;;1.00;99.90;;;;;;5054490;28;20228;-86
2023/02/25 22:21:11;;;;;;;4.40;3.30;;;0.90;99.90;;;;;;5054780;28;20205;-88
2023/02/25 22:23:42;;;;;;;4.23;3.60;;;0.90;99.90;;;;;;5057432;28;20213;-87
2023/02/25 22:26:10;;;;;;;4.47;3.40;;;1.00;99.90;;;;;;5061426;28;20190;-87
2023/02/25 22:28:37;;;;;;;4.90;3.57;;;1.00;99.90;;;;;;5050732;28;20209;-87
2023/02/25 22:31:05;;;;;;;4.30;2.83;;;0.90;99.90;;;;;;5024194;28;20199;-86
2023/02/25 22:33:32;;;;;;;5.17;3.10;;;0.80;99.90;;;;;;5051136;28;20285;-87
2023/02/25 22:36:01;;;;;;;4.27;2.47;;;0.70;99.90;;;;;;5048730;28;20202;-86
2023/02/25 22:38:28;;;;;;;2.87;2.40;;;0.70;99.60;;;;;;5047609;28;20217;-86
2023/02/25 22:40:57;;;;;;;2.03;1.90;;;0.70;99.30;;;;;;5041444;28;20209;-84
2023/02/25 22:43:24;;;;;;;2.60;2.00;;;0.50;98.90;;;;;;5029787;28;20202;-83
2023/02/25 22:45:51;;;;;;;3.00;1.80;;;0.50;98.90;;;;;;5027385;28;20213;-84
2023/02/25 22:48:18;;;;;;;2.27;1.57;;;0.50;99.10;;;;;;5051921;28;20479;-84
2023/02/25 22:50:49;;;;;;;1.63;1.50;;;0.40;99.30;;;;;;5035864;28;20670;-84
2023/02/25 22:53:16;;;;;;;4.93;1.60;;;0.40;99.30;;;;;;5045046;28;20293;-84
2023/02/25 22:55:43;;;;;;;1.70;1.60;;;0.30;98.80;;;;;;5047250;28;20670;-86
2023/02/25 22:58:12;;;;;;;1.70;1.60;;;0.30;99.20;;;;;;5025847;28;20225;-83
2023/02/25 23:00:40;;;;;;;1.90;1.50;;;0.30;99.20;;;;;;5049930;28;20202;-87
2023/02/25 23:03:08;;;;;;;1.70;1.60;;;0.30;99.20;;;;;;5056036;28;20201;-87
2023/02/25 23:05:35;;;;;;;2.17;1.87;;;0.30;99.20;;;;;;5054039;28;20224;-87
2023/02/25 23:08:03;;;;;;;1.50;1.40;;;0.30;99.20;;;;;;5053653;28;20290;-86
2023/02/25 23:10:31;;;;;;;3.57;1.60;;;0.20;99.00;;;;;;5018451;28;20609;-86
2023/02/25 23:13:06;;;;;;;3.70;2.07;;;0.10;99.20;;;;;;5055171;28;20207;-86
2023/02/25 23:15:36;;;;;;;2.60;1.40;;;0.10;99.20;;;;;;5036943;28;20614;-84
2023/02/25 23:18:04;;;;;;;2.40;1.70;;;0.10;99.20;;;;;;5050407;28;20265;-86
2023/02/25 23:20:33;;;;;;;1.90;1.70;;;0.10;99.20;;;;;;5041297;28;20193;-85
2023/02/25 23:23:03;;;;;;;4.00;1.80;;;0.00;99.20;;;;;;5061012;28;20226;-84
2023/02/25 23:25:30;;;;;;;2.20;1.93;;;0.00;99.20;;;;;;5039668;28;20231;-84
2023/02/25 23:27:58;;;;;;;2.20;2.00;;;0.10;99.80;;;;;;5060404;28;20202;-87
2023/02/25 23:30:26;;;;;;;2.33;1.77;;;0.10;99.90;;;;;;5037449;28;20209;-84
2023/02/25 23:32:56;;;;;;;5.27;2.53;;;0.00;99.80;;;;;;5022609;28;20194;-84
2023/02/25 23:35:24;;;;;;;2.97;2.23;;;0.10;99.90;;;;;;5039135;28;20198;-87
2023/02/25 23:37:51;;;;;;;2.30;2.10;;;0.20;99.90;;;;;;4998708;28;20229;-86
2023/02/25 23:40:19;;;;;;;2.67;2.23;;;0.30;99.80;;;;;;5056380;28;20206;-86
2023/02/25 23:42:46;;;;;;;2.73;2.43;;;0.30;99.60;;;;;;5060909;28;20299;-87
2023/02/25 23:45:14;;;;;;;2.63;2.40;;;0.30;99.70;;;;;;5059406;28;20190;-87
2023/02/25 23:47:42;;;;;;;2.57;2.20;;;0.20;99.70;;;;;;5059890;28;20258;-86
2023/02/25 23:50:15;;;;;;;3.57;2.00;;;0.20;99.50;;;;;;5057601;28;20208;-85
2023/02/25 23:52:41;;;;;;;3.97;2.10;;;0.20;99.70;;;;;;5055514;28;20208;-85
2023/02/25 23:55:10;;;;;;;2.40;2.10;;;0.20;99.50;;;;;;5048362;28;20220;-85
2023/02/25 23:57:38;;;;;;;2.20;2.00;;;0.10;99.20;;;;;;5029197;28;20213;-84
